Terminal Aerodrome Forecast
Issued by NWS

Home | Current Version | Previous Version | Text Only | Print | Product List | Glossary Off
Versions: 1 2 3 4 5 6 7 8 9 10 11 12

296
FTUS43 KICT 112342
TAFCNU
TAF
KCNU 112342Z 1200/1224 33016G23KT P6SM SCT060
     FM120200 35014KT P6SM SCT060
     FM120900 34008KT P6SM SKC
     FM122100 29011KT P6SM SKC=

USA.gov is the U.S. government's official web portal to all federal, state and local government web resources and services.